createdAt,value
2023-01-25T00:00:00.642Z,97.51
2023-01-25T00:02:28.998Z,97.47
2023-01-25T00:04:55.755Z,97.99
2023-01-25T00:07:22.543Z,98.01
2023-01-25T00:09:49.274Z,98.13
2023-01-25T00:12:16.096Z,98.18
2023-01-25T00:14:42.900Z,97.98
2023-01-25T00:17:09.629Z,97.69
2023-01-25T00:19:37.717Z,97.48
2023-01-25T00:22:04.467Z,97.48
2023-01-25T00:24:31.751Z,97.56
2023-01-25T00:26:58.543Z,97.32
2023-01-25T00:29:25.329Z,97.14
2023-01-25T00:32:02.379Z,97.43
2023-01-25T00:34:47.673Z,97.53
2023-01-25T00:37:20.636Z,97.29
2023-01-25T00:39:47.438Z,97.20
2023-01-25T00:42:15.270Z,97.26
2023-01-25T00:44:42.350Z,96.82
2023-01-25T00:47:09.592Z,96.51
2023-01-25T00:49:36.327Z,96.68
2023-01-25T00:52:04.799Z,96.70
2023-01-25T00:54:31.569Z,96.80
2023-01-25T00:56:58.389Z,96.68
2023-01-25T00:59:25.604Z,96.79
2023-01-25T01:01:53.514Z,96.97
2023-01-25T01:04:21.001Z,97.25
2023-01-25T01:06:47.732Z,97.04
2023-01-25T01:09:17.477Z,97.39
2023-01-25T01:11:44.485Z,97.14
2023-01-25T01:14:11.397Z,97.35
2023-01-25T01:16:38.192Z,98.20
2023-01-25T01:19:05.504Z,98.58
2023-01-25T01:21:32.847Z,97.58
2023-01-25T01:23:59.664Z,97.49
2023-01-25T01:26:27.942Z,98.36
2023-01-25T01:28:54.678Z,98.33
2023-01-25T01:31:24.026Z,98.67
2023-01-25T01:33:52.648Z,98.91
2023-01-25T01:36:21.646Z,98.99
2023-01-25T01:38:48.864Z,99.08
2023-01-25T01:41:16.448Z,98.87
2023-01-25T01:43:44.954Z,98.96
2023-01-25T01:46:15.657Z,99.06
2023-01-25T01:48:47.293Z,99.17
2023-01-25T01:51:19.894Z,99.19
2023-01-25T01:53:50.870Z,98.96
2023-01-25T01:56:22.059Z,98.89
2023-01-25T01:58:52.996Z,98.30
2023-01-25T02:01:19.831Z,97.98
2023-01-25T02:03:48.348Z,97.92
2023-01-25T02:06:20.423Z,97.76
2023-01-25T02:08:47.590Z,98.00
2023-01-25T02:11:14.411Z,98.05
2023-01-25T02:13:41.509Z,98.45
2023-01-25T02:16:15.695Z,98.50
2023-01-25T02:18:42.484Z,98.47
2023-01-25T02:21:10.212Z,98.49
2023-01-25T02:23:45.011Z,98.73
2023-01-25T02:26:14.550Z,99.01
2023-01-25T02:28:46.878Z,99.11
2023-01-25T02:31:13.694Z,98.96
2023-01-25T02:33:40.463Z,98.86
2023-01-25T02:36:20.174Z,99.22
2023-01-25T02:38:51.620Z,99.29
2023-01-25T02:41:24.640Z,98.94
2023-01-25T02:43:51.671Z,98.95
2023-01-25T02:46:22.739Z,98.58
2023-01-25T02:48:49.631Z,98.60
2023-01-25T02:51:16.391Z,98.64
2023-01-25T02:53:43.170Z,98.80
2023-01-25T02:56:09.919Z,98.65
2023-01-25T02:58:38.006Z,98.83
2023-01-25T03:01:04.726Z,98.84
2023-01-25T03:03:31.474Z,98.56
2023-01-25T03:05:58.228Z,98.72
2023-01-25T03:08:24.968Z,99.11
2023-01-25T03:10:51.796Z,99.18
2023-01-25T03:13:18.628Z,99.30
2023-01-25T03:15:46.734Z,99.05
2023-01-25T03:18:13.488Z,99.44
2023-01-25T03:20:40.229Z,99.80
2023-01-25T03:23:06.923Z,99.71
2023-01-25T03:25:33.680Z,100.00
2023-01-25T03:28:00.376Z,99.94
2023-01-25T03:30:27.139Z,99.54
2023-01-25T03:32:55.222Z,99.39
2023-01-25T03:35:21.960Z,99.31
2023-01-25T03:37:48.623Z,99.02
2023-01-25T03:40:15.655Z,99.24
2023-01-25T03:42:42.408Z,98.74
2023-01-25T03:45:10.011Z,98.56
2023-01-25T03:47:36.902Z,98.58
2023-01-25T03:50:05.971Z,98.75
2023-01-25T03:52:32.676Z,98.82
2023-01-25T03:54:59.437Z,98.82
2023-01-25T03:57:26.163Z,98.49
2023-01-25T03:59:52.865Z,98.47
2023-01-25T04:02:19.684Z,98.29
2023-01-25T04:04:46.420Z,98.35
2023-01-25T04:07:14.511Z,98.63
2023-01-25T04:09:41.317Z,98.98
2023-01-25T04:12:08.072Z,99.00
2023-01-25T04:14:43.980Z,98.40
2023-01-25T04:17:11.209Z,98.40
2023-01-25T04:19:37.931Z,98.28
2023-01-25T04:22:04.686Z,98.33
2023-01-25T04:24:32.895Z,97.91
2023-01-25T04:26:59.662Z,97.51
2023-01-25T04:29:40.090Z,97.61
2023-01-25T04:32:08.068Z,97.65
2023-01-25T04:34:34.870Z,97.76
2023-01-25T04:37:01.576Z,97.52
2023-01-25T04:39:28.496Z,96.91
2023-01-25T04:41:56.679Z,96.55
2023-01-25T04:44:23.492Z,96.42
2023-01-25T04:46:50.239Z,97.22
2023-01-25T04:49:17.013Z,97.36
2023-01-25T04:51:43.750Z,97.38
2023-01-25T04:54:10.469Z,97.26
2023-01-25T04:56:37.157Z,97.50
2023-01-25T04:59:05.273Z,97.70
2023-01-25T05:01:32.033Z,97.26
2023-01-25T05:03:58.965Z,97.31
2023-01-25T05:06:25.998Z,97.40
2023-01-25T05:08:52.814Z,97.57
2023-01-25T05:11:19.566Z,97.45
2023-01-25T05:13:46.266Z,97.43
2023-01-25T05:16:14.469Z,97.61
2023-01-25T05:18:48.333Z,97.82
2023-01-25T05:21:15.820Z,97.87
2023-01-25T05:23:42.522Z,97.81
2023-01-25T05:26:09.291Z,98.20
2023-01-25T05:28:36.043Z,98.36
2023-01-25T05:31:04.210Z,98.59
2023-01-25T05:33:32.363Z,98.55
2023-01-25T05:35:59.355Z,98.21
2023-01-25T05:38:26.077Z,97.96
2023-01-25T05:40:52.792Z,97.95
2023-01-25T05:43:19.637Z,97.75
2023-01-25T05:45:52.729Z,97.85
2023-01-25T05:48:19.531Z,97.57
2023-01-25T05:50:47.629Z,97.34
2023-01-25T05:53:14.368Z,97.17
2023-01-25T05:55:41.222Z,97.02
2023-01-25T05:58:07.950Z,96.83
2023-01-25T06:00:34.718Z,96.77
2023-01-25T06:03:02.064Z,96.42
2023-01-25T06:05:28.914Z,96.41
2023-01-25T06:07:58.286Z,96.55
2023-01-25T06:10:25.214Z,96.55
2023-01-25T06:12:56.908Z,96.85
2023-01-25T06:15:23.635Z,96.91
2023-01-25T06:17:54.057Z,97.01
2023-01-25T06:20:20.855Z,97.08
2023-01-25T06:22:49.855Z,97.20
2023-01-25T06:25:18.174Z,97.72
2023-01-25T06:27:44.959Z,97.86
2023-01-25T06:30:12.134Z,98.01
2023-01-25T06:32:39.409Z,98.32
2023-01-25T06:35:06.818Z,98.58
2023-01-25T06:37:33.794Z,98.60
2023-01-25T06:40:00.686Z,99.00
2023-01-25T06:42:28.807Z,99.38
2023-01-25T06:44:55.508Z,99.44
2023-01-25T06:47:22.242Z,99.59
2023-01-25T06:49:49.048Z,99.67
2023-01-25T06:52:15.852Z,99.63
2023-01-25T06:54:42.787Z,99.47
2023-01-25T06:57:09.538Z,99.83
2023-01-25T06:59:37.745Z,100.00
2023-01-25T07:02:04.645Z,100.00
2023-01-25T07:04:31.348Z,100.00
2023-01-25T07:06:58.070Z,100.00
2023-01-25T07:09:24.860Z,100.00
2023-01-25T07:11:51.667Z,100.00
2023-01-25T07:14:18.542Z,100.00
2023-01-25T07:16:46.667Z,100.00
2023-01-25T07:19:13.511Z,100.00
2023-01-25T07:21:40.197Z,100.00
2023-01-25T07:24:07.310Z,100.00
2023-01-25T07:26:34.092Z,100.00
2023-01-25T07:29:00.915Z,100.00
2023-01-25T07:31:27.843Z,100.00
2023-01-25T07:33:57.399Z,100.00
2023-01-25T07:36:25.446Z,100.00
2023-01-25T07:38:53.513Z,100.00
2023-01-25T07:41:20.282Z,100.00
2023-01-25T07:43:46.945Z,100.00
2023-01-25T07:46:14.290Z,100.00
2023-01-25T07:48:45.208Z,100.00
2023-01-25T07:51:13.537Z,100.00
2023-01-25T07:53:41.462Z,100.00
2023-01-25T07:56:09.534Z,100.00
2023-01-25T07:58:36.659Z,100.00
2023-01-25T08:01:07.225Z,100.00
2023-01-25T08:03:34.061Z,100.00
2023-01-25T08:06:00.895Z,100.00
2023-01-25T08:08:28.999Z,100.00
2023-01-25T08:10:55.737Z,100.00
2023-01-25T08:13:22.536Z,100.00
2023-01-25T08:15:53.849Z,100.00
2023-01-25T08:18:20.562Z,100.00
2023-01-25T08:20:47.578Z,100.00
2023-01-25T08:23:14.399Z,100.00
2023-01-25T08:25:42.714Z,100.00
2023-01-25T08:28:09.417Z,100.00
2023-01-25T08:30:36.649Z,100.00
2023-01-25T08:33:04.631Z,100.00
2023-01-25T08:35:31.367Z,100.00
2023-01-25T08:37:58.093Z,100.00
2023-01-25T08:40:24.788Z,100.00
2023-01-25T08:42:53.017Z,100.00
2023-01-25T08:45:19.771Z,100.00
2023-01-25T08:47:46.464Z,100.00
2023-01-25T08:50:13.190Z,100.00
2023-01-25T08:52:39.912Z,100.00
2023-01-25T08:55:07.179Z,100.00
2023-01-25T08:57:33.862Z,100.00
2023-01-25T09:00:02.474Z,100.00
2023-01-25T09:02:29.353Z,100.00
2023-01-25T09:04:56.088Z,100.00
2023-01-25T09:07:23.200Z,100.00
2023-01-25T09:09:49.917Z,100.00
2023-01-25T09:12:16.597Z,100.00
2023-01-25T09:14:43.314Z,100.00
2023-01-25T09:17:11.411Z,100.00
2023-01-25T09:19:38.119Z,100.00
2023-01-25T09:22:04.882Z,100.00
2023-01-25T09:24:31.647Z,100.00
2023-01-25T09:27:00.121Z,100.00
2023-01-25T09:29:27.313Z,100.00
2023-01-25T09:31:54.149Z,100.00
2023-01-25T09:34:22.310Z,100.00
2023-01-25T09:36:49.056Z,100.00
2023-01-25T09:39:15.740Z,100.00
2023-01-25T09:42:14.986Z,100.00
2023-01-25T09:45:12.427Z,100.00
2023-01-25T09:47:48.455Z,100.00
2023-01-25T09:50:32.028Z,100.00
2023-01-25T09:53:22.534Z,100.00
2023-01-25T09:55:55.681Z,100.00
2023-01-25T09:58:30.695Z,100.00
2023-01-25T10:01:14.031Z,100.00
2023-01-25T10:03:48.801Z,100.00
2023-01-25T10:06:17.884Z,100.00
2023-01-25T10:08:51.904Z,100.00
2023-01-25T10:11:24.680Z,100.00
2023-01-25T10:13:52.847Z,100.00
2023-01-25T10:16:26.116Z,100.00
2023-01-25T10:19:01.504Z,100.00
2023-01-25T10:21:34.576Z,100.00
2023-01-25T10:24:20.317Z,100.00
2023-01-25T10:26:52.477Z,100.00
2023-01-25T10:29:20.743Z,100.00
2023-01-25T10:31:49.317Z,100.00
2023-01-25T10:34:20.575Z,100.00
2023-01-25T10:36:53.645Z,100.00
2023-01-25T10:39:20.810Z,100.00
2023-01-25T10:41:53.563Z,100.00
2023-01-25T10:44:20.338Z,100.00
2023-01-25T10:46:52.188Z,100.00
2023-01-25T10:49:24.162Z,100.00
2023-01-25T10:51:52.367Z,99.94
2023-01-25T10:54:19.058Z,100.00
2023-01-25T10:56:46.359Z,99.72
2023-01-25T10:59:20.196Z,99.40
2023-01-25T11:01:47.001Z,99.46
2023-01-25T11:04:37.759Z,99.60
2023-01-25T11:07:06.429Z,99.48
2023-01-25T11:09:36.762Z,99.00
2023-01-25T11:12:06.106Z,98.53
2023-01-25T11:14:33.736Z,98.87
2023-01-25T11:17:03.689Z,98.76
2023-01-25T11:19:34.051Z,99.04
2023-01-25T11:22:03.007Z,99.00
2023-01-25T11:24:32.579Z,99.25
2023-01-25T11:27:18.644Z,99.05
2023-01-25T11:29:46.436Z,99.05
2023-01-25T11:32:18.550Z,99.33
2023-01-25T11:34:45.233Z,99.09
2023-01-25T11:37:38.130Z,99.09
2023-01-25T11:40:17.728Z,99.45
2023-01-25T11:42:59.988Z,100.00
2023-01-25T11:46:02.380Z,100.00
2023-01-25T11:49:12.094Z,100.00
2023-01-25T11:51:43.334Z,100.00
2023-01-25T11:54:32.474Z,100.00
2023-01-25T11:57:10.091Z,100.00
2023-01-25T11:59:55.050Z,100.00
2023-01-25T12:02:50.271Z,100.00
2023-01-25T12:05:33.248Z,100.00
2023-01-25T12:08:12.319Z,99.97
2023-01-25T12:10:47.771Z,99.87
2023-01-25T12:13:22.867Z,99.58
2023-01-25T12:16:12.431Z,99.08
2023-01-25T12:18:57.658Z,99.62
2023-01-25T12:21:40.759Z,99.73
2023-01-25T12:24:28.313Z,98.86
2023-01-25T12:27:07.710Z,99.18
2023-01-25T12:29:40.684Z,98.01
2023-01-25T12:32:18.344Z,96.91
2023-01-25T12:34:51.164Z,96.49
2023-01-25T12:37:23.338Z,96.06
2023-01-25T12:39:55.867Z,96.46
2023-01-25T12:42:29.614Z,96.88
2023-01-25T12:45:02.673Z,96.91
2023-01-25T12:47:34.949Z,97.07
2023-01-25T12:50:12.911Z,98.34
2023-01-25T12:52:45.534Z,97.89
2023-01-25T12:55:14.765Z,96.99
2023-01-25T12:57:47.418Z,96.25
2023-01-25T13:00:25.955Z,95.55
2023-01-25T13:03:11.003Z,95.51
2023-01-25T13:05:45.586Z,95.37
2023-01-25T13:08:31.101Z,95.50
2023-01-25T13:11:08.616Z,95.89
2023-01-25T13:13:35.412Z,96.20
2023-01-25T13:16:40.795Z,96.90
2023-01-25T13:19:19.475Z,97.59
2023-01-25T13:21:47.365Z,98.42
2023-01-25T13:24:19.870Z,98.94
2023-01-25T13:26:58.529Z,99.55
2023-01-25T13:29:44.016Z,100.00
2023-01-25T13:32:14.150Z,100.00
2023-01-25T13:34:57.531Z,100.00
2023-01-25T13:37:26.564Z,100.00
2023-01-25T13:39:54.491Z,100.00
2023-01-25T13:42:23.573Z,100.00
2023-01-25T13:44:53.459Z,100.00
2023-01-25T13:47:23.758Z,100.00
2023-01-25T13:49:56.663Z,100.00
2023-01-25T13:52:24.870Z,100.00
2023-01-25T13:54:55.903Z,100.00
2023-01-25T13:57:25.941Z,100.00
2023-01-25T14:00:09.864Z,100.00
2023-01-25T14:02:41.774Z,100.00
2023-01-25T14:05:17.873Z,100.00
2023-01-25T14:07:47.601Z,100.00
2023-01-25T14:10:17.992Z,100.00
2023-01-25T14:12:45.104Z,100.00
2023-01-25T14:15:20.267Z,100.00
2023-01-25T14:18:04.652Z,100.00
2023-01-25T14:20:31.829Z,100.00
2023-01-25T14:22:58.511Z,100.00
2023-01-25T14:25:25.297Z,100.00
2023-01-25T14:27:54.648Z,100.00
2023-01-25T14:30:24.902Z,100.00
2023-01-25T14:32:54.983Z,100.00
2023-01-25T14:35:54.181Z,100.00
2023-01-25T14:38:26.114Z,100.00
2023-01-25T14:40:56.822Z,100.00
2023-01-25T14:43:25.188Z,100.00
2023-01-25T14:45:51.990Z,100.00
2023-01-25T14:48:40.845Z,100.00
2023-01-25T14:51:18.332Z,100.00
2023-01-25T14:53:48.822Z,100.00
2023-01-25T14:56:29.738Z,100.00
2023-01-25T14:58:59.803Z,100.00
2023-01-25T15:01:32.859Z,100.00
2023-01-25T15:04:01.135Z,100.00
2023-01-25T15:06:28.019Z,100.00
2023-01-25T15:08:54.948Z,100.00
2023-01-25T15:11:28.699Z,100.00
2023-01-25T15:14:01.729Z,100.00
2023-01-25T15:16:33.390Z,100.00
2023-01-25T15:19:01.543Z,100.00
2023-01-25T15:21:30.535Z,100.00
2023-01-25T15:23:59.292Z,100.00
2023-01-25T15:26:27.804Z,100.00
2023-01-25T15:28:56.937Z,100.00
2023-01-25T15:31:26.443Z,100.00
2023-01-25T15:33:54.116Z,100.00
2023-01-25T15:36:22.488Z,100.00
2023-01-25T15:38:49.214Z,100.00
2023-01-25T15:41:15.924Z,100.00
2023-01-25T15:43:42.837Z,100.00
2023-01-25T15:46:16.666Z,99.84
2023-01-25T15:48:45.349Z,99.38
2023-01-25T15:51:12.577Z,99.89
2023-01-25T15:53:40.785Z,100.00
2023-01-25T15:56:13.975Z,99.22
2023-01-25T15:58:42.732Z,99.05
2023-01-25T16:01:10.124Z,98.57
2023-01-25T16:03:36.912Z,99.04
2023-01-25T16:06:07.140Z,98.97
2023-01-25T16:08:36.879Z,98.38
2023-01-25T16:11:04.913Z,98.25
2023-01-25T16:13:31.603Z,99.20
2023-01-25T16:16:00.240Z,98.43
2023-01-25T16:18:26.916Z,97.98
2023-01-25T16:20:53.605Z,97.79
2023-01-25T16:23:20.271Z,97.64
2023-01-25T16:25:48.609Z,98.08
2023-01-25T16:28:17.434Z,99.35
2023-01-25T16:30:44.245Z,99.32
2023-01-25T16:33:11.061Z,99.16
2023-01-25T16:35:38.851Z,98.84
2023-01-25T16:38:05.599Z,98.01
2023-01-25T16:40:34.915Z,98.69
2023-01-25T16:43:01.569Z,98.58
2023-01-25T16:45:29.814Z,99.18
2023-01-25T16:47:56.464Z,99.30
2023-01-25T16:50:23.729Z,99.05
2023-01-25T16:52:50.389Z,98.88
2023-01-25T16:55:18.612Z,98.38
2023-01-25T16:57:50.331Z,98.77
2023-01-25T17:00:17.762Z,98.92
2023-01-25T17:02:58.272Z,98.00
2023-01-25T17:05:26.153Z,97.43
2023-01-25T17:07:52.908Z,97.70
2023-01-25T17:10:19.890Z,97.92
2023-01-25T17:12:46.645Z,97.76
2023-01-25T17:15:13.315Z,97.99
2023-01-25T17:17:40.048Z,98.64
2023-01-25T17:20:10.416Z,97.91
2023-01-25T17:22:37.372Z,97.43
2023-01-25T17:25:04.361Z,98.33
2023-01-25T17:27:31.075Z,97.12
2023-01-25T17:29:57.766Z,96.42
2023-01-25T17:32:24.689Z,96.14
2023-01-25T17:34:51.466Z,96.20
2023-01-25T17:37:19.620Z,96.13
2023-01-25T17:39:46.278Z,95.85
2023-01-25T17:42:12.940Z,95.87
2023-01-25T17:44:39.599Z,95.94
2023-01-25T17:47:06.324Z,95.96
2023-01-25T17:49:32.987Z,96.51
2023-01-25T17:51:59.638Z,96.57
2023-01-25T17:54:27.719Z,95.84
2023-01-25T17:56:54.400Z,96.08
2023-01-25T17:59:21.186Z,95.63
2023-01-25T18:01:48.021Z,95.07
2023-01-25T18:04:14.714Z,95.92
2023-01-25T18:06:41.426Z,96.10
2023-01-25T18:09:08.423Z,95.04
2023-01-25T18:11:38.318Z,94.50
2023-01-25T18:14:08.454Z,94.00
2023-01-25T18:16:37.462Z,93.74
2023-01-25T18:19:04.744Z,93.75
2023-01-25T18:21:32.794Z,93.64
2023-01-25T18:24:01.905Z,93.19
2023-01-25T18:26:33.173Z,93.80
2023-01-25T18:29:22.001Z,93.87
2023-01-25T18:31:48.700Z,93.66
2023-01-25T18:34:15.466Z,93.64
2023-01-25T18:36:42.177Z,93.76
2023-01-25T18:39:09.048Z,94.21
2023-01-25T18:41:35.698Z,94.07
2023-01-25T18:44:03.922Z,94.04
2023-01-25T18:46:30.741Z,94.80
2023-01-25T18:48:57.436Z,94.39
2023-01-25T18:51:24.168Z,95.23
2023-01-25T18:53:50.852Z,95.68
2023-01-25T18:56:19.977Z,95.98
2023-01-25T18:58:47.271Z,95.97
2023-01-25T19:01:17.811Z,95.82
2023-01-25T19:03:46.288Z,95.85
2023-01-25T19:06:13.439Z,96.03
2023-01-25T19:08:40.355Z,96.26
2023-01-25T19:11:09.375Z,96.51
2023-01-25T19:13:38.204Z,96.46
2023-01-25T19:16:07.674Z,95.95
2023-01-25T19:18:37.576Z,95.79
2023-01-25T19:21:08.051Z,95.42
2023-01-25T19:23:36.603Z,96.06
2023-01-25T19:26:03.913Z,95.72
2023-01-25T19:28:30.613Z,95.18
2023-01-25T19:30:57.523Z,94.88
2023-01-25T19:33:24.231Z,94.61
2023-01-25T19:36:00.641Z,94.27
2023-01-25T19:38:27.550Z,94.60
2023-01-25T19:40:54.310Z,95.03
2023-01-25T19:43:21.044Z,94.95
2023-01-25T19:45:47.698Z,94.75
2023-01-25T19:48:14.380Z,94.66
2023-01-25T19:50:41.101Z,94.53
2023-01-25T19:53:09.134Z,94.71
2023-01-25T19:55:35.768Z,94.34
2023-01-25T19:58:02.423Z,93.73
2023-01-25T20:00:31.792Z,93.40
2023-01-25T20:03:10.687Z,93.29
2023-01-25T20:05:42.499Z,93.68
2023-01-25T20:08:10.500Z,94.35
2023-01-25T20:10:37.186Z,94.43
2023-01-25T20:13:03.856Z,94.51
2023-01-25T20:15:33.567Z,94.68
2023-01-25T20:18:00.224Z,94.62
2023-01-25T20:20:26.862Z,94.27
2023-01-25T20:22:53.493Z,94.01
2023-01-25T20:25:21.516Z,94.11
2023-01-25T20:27:48.149Z,94.55
2023-01-25T20:30:15.024Z,95.14
2023-01-25T20:32:41.839Z,95.29
2023-01-25T20:35:09.671Z,95.64
2023-01-25T20:37:36.478Z,95.69
2023-01-25T20:40:03.256Z,94.88
2023-01-25T20:42:31.327Z,93.76
2023-01-25T20:44:57.964Z,93.18
2023-01-25T20:47:24.700Z,92.53
2023-01-25T20:49:51.497Z,92.35
2023-01-25T20:52:18.128Z,91.76
2023-01-25T20:54:44.769Z,91.47
2023-01-25T20:57:11.608Z,91.93
2023-01-25T20:59:39.641Z,92.60
2023-01-25T21:02:06.877Z,92.99
2023-01-25T21:04:33.749Z,92.89
2023-01-25T21:07:00.449Z,92.54
2023-01-25T21:09:27.067Z,92.23
2023-01-25T21:11:53.757Z,91.53
2023-01-25T21:14:20.415Z,90.90
2023-01-25T21:16:48.538Z,90.62
2023-01-25T21:19:15.181Z,90.92
2023-01-25T21:21:41.848Z,92.44
2023-01-25T21:24:09.222Z,93.62
2023-01-25T21:26:36.579Z,94.41
2023-01-25T21:29:05.339Z,94.84
2023-01-25T21:31:33.557Z,94.65
2023-01-25T21:34:02.369Z,93.12
2023-01-25T21:36:29.464Z,92.18
2023-01-25T21:38:56.467Z,92.32
2023-01-25T21:41:25.059Z,92.23
2023-01-25T21:43:53.405Z,92.10
2023-01-25T21:46:20.552Z,92.55
2023-01-25T21:48:47.165Z,93.15
2023-01-25T21:51:15.151Z,92.66
2023-01-25T21:53:41.852Z,92.01
2023-01-25T21:56:08.538Z,92.29
2023-01-25T21:58:35.168Z,92.44
2023-01-25T22:01:03.728Z,92.54
2023-01-25T22:03:30.393Z,92.44
2023-01-25T22:05:57.031Z,92.38
2023-01-25T22:08:25.031Z,92.20
2023-01-25T22:10:51.678Z,92.36
2023-01-25T22:13:18.357Z,92.68
2023-01-25T22:15:45.108Z,92.74
2023-01-25T22:18:11.784Z,92.60
2023-01-25T22:20:38.434Z,92.62
2023-01-25T22:23:05.065Z,92.78
2023-01-25T22:25:33.226Z,92.90
2023-01-25T22:28:00.185Z,93.03
2023-01-25T22:30:26.985Z,92.90
2023-01-25T22:32:53.656Z,92.71
2023-01-25T22:35:20.541Z,92.29
2023-01-25T22:37:47.171Z,91.84
2023-01-25T22:40:14.240Z,91.71
2023-01-25T22:42:42.307Z,91.82
2023-01-25T22:45:09.709Z,92.02
2023-01-25T22:47:36.417Z,91.86
2023-01-25T22:50:04.188Z,91.07
2023-01-25T22:52:32.761Z,90.34
2023-01-25T22:54:59.531Z,90.70
2023-01-25T22:57:26.228Z,90.67
2023-01-25T22:59:54.337Z,90.88
2023-01-25T23:02:21.342Z,91.33
2023-01-25T23:04:48.027Z,91.25
2023-01-25T23:07:14.764Z,90.79
2023-01-25T23:09:41.526Z,90.52
2023-01-25T23:12:08.342Z,90.21
2023-01-25T23:14:35.170Z,90.40
2023-01-25T23:17:03.320Z,91.15
2023-01-25T23:19:30.190Z,91.70
2023-01-25T23:21:56.851Z,92.51
2023-01-25T23:24:23.583Z,92.41
2023-01-25T23:26:50.237Z,91.85
2023-01-25T23:29:16.910Z,91.37
2023-01-25T23:31:43.643Z,91.01
2023-01-25T23:34:11.822Z,90.87
2023-01-25T23:36:38.660Z,90.62
2023-01-25T23:39:05.589Z,90.34
2023-01-25T23:41:32.563Z,90.25
2023-01-25T23:43:59.290Z,90.59
2023-01-25T23:46:26.296Z,90.81
2023-01-25T23:48:53.025Z,90.91
2023-01-25T23:51:21.283Z,90.44
2023-01-25T23:53:48.279Z,89.83
2023-01-25T23:56:17.059Z,89.48
2023-01-25T23:58:44.308Z,90.14
